Etusivu
METAR-TAF:

METAR-TAF

Lentoasemat :

Bou Saada, Algeria

Leveyspiiri: 35-20N, Pituuspiiri: 004-12E, korkeus merenpinnasta: 461 m

Tämänhetkinen sää

Tämä raportti tehtiin 20 minuuttia sitten, kello 11.00 UTC
Tuuli 5 kn idästä
Lämpötila 20°C
Kosteus 60%
Ilmanpaine 1013 hPa
Näkyvyys 10 km tai enemmän
Muutamia pilviä 3000 ft:n korkeudessa
Hajonneita pilviä 20000 ft:n korkeudessa

METAR: DAAD 011100Z 08005KT 9999 FEW030 BKN200 20/12 Q1013

Aika: 12:20 (11:20 UTC)

Sääennuste

Tämä raportti tehtiin 3 tuntia ja 20 minuuttia sitten, kello 08.00 UTC
Ennuste voimassa 01. päivästä klo 09 UTC - 01. päivään klo 18 UTC
Tuuli 8 kn luoteesta
Näkyvyys 10 km tai enemmän
ei pilviä alle 1500 m:ssä eikä cumulonimbus-pilviä

TAF: DAAD 010800Z 0109/0118 32008KT CAVOK

Säähavainnot ja -ennusteet yli 4000 lentoasemalta (METAR- ja TAF-raportit).

Käytössä olevat sääasemat on merkitty karttaan keltaisilla ja punaisilla pisteillä.

Aseta hiiri pisteen päälle nähdäksesi sääaseman nimen.

Klikkaa sitten nähdäksesi säähavainnot ja -ennusteet.

Kartan vaihtaminen: klikkaa mustalla rastilla varustettuja vihreitä pisteitä, niin voit zoomata sisään; viivalla varustettua vihreää pistettä, niin voit zoomata ulos tai vihreitä nuolia, niin pääset viereisille kartoille.


METAR-TAF: